Terminal Aerodrome Forecast
Issued by NWS

Home | Current Version | Previous Version | Text Only | Print | Product List | Glossary On
Versions: 1 2 3 4 5 6 7 8 9 10 11 12 13 14 15 16 17 18
000
FTUS44 KLZK 281400 AAB
TAFBPK
TAF AMD
KBPK 281414Z 2814/2912 12006KT P6SM OVC010
     FM281600 15006KT P6SM SCT020 SCT100 BKN250
     FM281800 15009KT P6SM VCTS SCT030CB SCT100 BKN250=

USA.gov is the U.S. government's official web portal to all federal, state and local government web resources and services.